Flight Track Log - Related Links

Times and Time Zones

All times are in EDT time to prevent confusion due to time zone crossing. See the SWA2353 flight status page for this flight to view local times or setup timezone preferences in your user account.

Time Position Orientation Groundspeed Altitude Reporting Facility
EDT Latitude Longitude Course Direction KTS MPH feet Rate Location/Type
Mon 10:38:01 PM 41.7667 -87.7667 228° Southwest 139 160 2,000  Level Chicago TRACON
Mon 10:39:01 PM 41.7333 -87.8167 228° Southwest 193 222 4,800 2,684 Climbing Chicago TRACON
Mon 10:39:55 PM 41.6833 -87.8500 206° Southwest 246 283 7,100 3,529 Climbing Chicago TRACON
Mon 10:40:43 PM 41.6289 -87.8842 205° Southwest 266 306 10,800 2,752 Climbing Chicago Center
Mon 10:41:44 PM 41.5561 -87.9322 206° Southwest 288 331 12,100 2,311 Climbing Chicago Center
Mon 10:42:45 PM 41.4708 -87.9783 202° Southwest 328 377 15,500 3,787 Climbing Chicago Center
Mon 10:43:46 PM 41.3744 -88.0311 202° Southwest 350 403 19,800 4,279 Climbing Chicago Center
Mon 10:44:47 PM 41.2758 -88.0781 200° South 367 422 24,200 3,024 Climbing Chicago Center
Mon 10:45:49 PM 41.1831 -88.1264 201° Southwest 363 418 26,000 878 Climbing Chicago Center
Mon 10:46:50 PM 41.0822 -88.1789 201° Southwest 398 458 26,000  Level Chicago Center
Mon 10:47:51 PM 40.9781 -88.2314 201° Southwest 402 463 26,000  Level Chicago Center
Mon 10:48:52 PM 40.8742 -88.2842 201° Southwest 401 461 26,000  Level Chicago Center
Mon 10:49:53 PM 40.7694 -88.3367 201° Southwest 404 465 26,000  Level Chicago Center
Mon 10:50:54 PM 40.6642 -88.3897 201° Southwest 406 467 26,000  Level Chicago Center
Mon 10:51:55 PM 40.5589 -88.4433 201° Southwest 407 468 26,000  Level Chicago Center
Mon 10:52:56 PM 40.4531 -88.4958 201° Southwest 407 468 26,000  Level Chicago Center
Mon 10:53:57 PM 40.3414 -88.5514 201° Southwest 408 470 26,000  Level Chicago Center
Mon 10:54:58 PM 40.2336 -88.6047 201° Southwest 410 472 26,000  Level Chicago Center
Mon 10:55:59 PM 40.1267 -88.6592 201° Southwest 411 473 26,000  Level Chicago Center
Mon 10:57:00 PM 40.0275 -88.7306 209° Southwest 411 473 26,000  Level Chicago Center
Mon 10:57:58 PM 39.9319 -88.8114 213° Southwest 408 470 26,000  Level Kansas City Center
Mon 10:58:59 PM 39.8358 -88.8919 213° Southwest 409 471 26,000  Level Kansas City Center
Mon 11:00:00 PM 39.7422 -88.9703 213° Southwest 406 467 26,000  Level Kansas City Center
Mon 11:01:01 PM 39.6472 -89.0506 213° Southwest 405 466 26,000  Level Kansas City Center
Mon 11:02:02 PM 39.5525 -89.1308 213° Southwest 406 467 26,000  Level Kansas City Center
Mon 11:03:03 PM 39.4383 -89.2267 213° Southwest 407 468 26,000  Level Kansas City Center
Mon 11:04:04 PM 39.3433 -89.3058 213° Southwest 411 473 26,000 -590 Level Kansas City Center
Mon 11:05:05 PM 39.2494 -89.3825 212° Southwest 405 466 24,800 -2,115 Descending Kansas City Center
Mon 11:06:06 PM 39.1533 -89.4631 213° Southwest 388 447 21,700 -2,390 Descending Kansas City Center
Mon 11:07:08 PM 39.0839 -89.5553 226° Southwest 370 426 19,900 -2,049 Descending Kansas City Center
Mon 11:08:09 PM 39.0558 -89.6753 253° West 353 406 17,500 -3,171 Descending Kansas City Center
Mon 11:09:11 PM 39.0233 -89.8036 252° West 352 405 13,400 -3,246 Descending Kansas City Center
Mon 11:10:11 PM 38.9958 -89.9228 253° West 351 404 10,900 -1,686 Descending Kansas City Center
Mon 11:11:12 PM 38.9767 -90.0081 254° West 309 356 10,000 -1,230 Descending Kansas City Center
Mon 11:12:13 PM 38.9536 -90.1028 253° West 284 327 8,400 -1,574 Descending Kansas City Center
Mon 11:13:14 PM 38.9256 -90.2153 252° West 279 321 6,800 -1,574 Descending Kansas City Center
Mon 11:14:15 PM 38.9047 -90.3008 253° West 268 308 5,200 -1,426 Descending Kansas City Center
Mon 11:15:16 PM 38.8772 -90.3708 243° Southwest 243 280 3,900 -1,180 Descending Kansas City Center
Mon 11:16:17 PM 38.8428 -90.4217 229° Southwest 210 242 2,800 -934 Descending Kansas City Center
Mon 11:17:18 PM 38.8078 -90.4436 206° Southwest 167 192 2,000 -689 Descending Kansas City Center
Mon 11:18:19 PM 38.7789 -90.4281 157° South 134 154 1,400 -541 Descending Kansas City Center
Mon 11:19:20 PM 38.7611 -90.3933 123° Southeast 123 142 900 -393 Descending Kansas City Center
Mon 11:20:21 PM 38.7442 -90.3589 122° Southeast 122 140 600 -295 Descending Kansas City Center

Login

Don't have an account? Register now (free) for customized features, flight alerts, and more!